sensor_id;sensor_type;location;lat;lon;timestamp;pressure;altitude;pressure_sealevel;temperature;humidity
43039;BME280;62252;50.668;19.530;2022-08-19T00:01:53;97586.13;;;19.32;100.00
43039;BME280;62252;50.668;19.530;2022-08-19T00:04:24;97590.28;;;19.34;100.00
43039;BME280;62252;50.668;19.530;2022-08-19T00:06:51;97591.63;;;19.38;100.00
43039;BME280;62252;50.668;19.530;2022-08-19T00:09:20;97593.50;;;19.38;100.00
43039;BME280;62252;50.668;19.530;2022-08-19T00:11:48;97587.63;;;19.34;100.00
43039;BME280;62252;50.668;19.530;2022-08-19T00:14:17;97589.28;;;19.35;100.00
43039;BME280;62252;50.668;19.530;2022-08-19T00:16:46;97588.81;;;19.40;100.00
43039;BME280;62252;50.668;19.530;2022-08-19T00:19:14;97580.97;;;19.38;100.00
43039;BME280;62252;50.668;19.530;2022-08-19T00:21:42;97584.31;;;19.32;100.00
43039;BME280;62252;50.668;19.530;2022-08-19T00:24:12;97581.13;;;19.29;100.00
43039;BME280;62252;50.668;19.530;2022-08-19T00:26:41;97596.13;;;19.30;100.00
43039;BME280;62252;50.668;19.530;2022-08-19T00:29:10;97592.16;;;19.34;100.00
43039;BME280;62252;50.668;19.530;2022-08-19T00:31:39;97593.81;;;19.35;100.00
43039;BME280;62252;50.668;19.530;2022-08-19T00:34:09;97587.63;;;19.34;100.00
43039;BME280;62252;50.668;19.530;2022-08-19T00:36:37;97580.97;;;19.38;100.00
43039;BME280;62252;50.668;19.530;2022-08-19T00:39:05;97578.13;;;19.40;100.00
43039;BME280;62252;50.668;19.530;2022-08-19T00:41:32;97580.47;;;19.35;100.00
43039;BME280;62252;50.668;19.530;2022-08-19T00:44:03;97583.13;;;19.27;100.00
43039;BME280;62252;50.668;19.530;2022-08-19T00:46:32;97571.59;;;19.18;100.00
43039;BME280;62252;50.668;19.530;2022-08-19T00:49:14;97575.59;;;19.14;100.00
43039;BME280;62252;50.668;19.530;2022-08-19T00:51:45;97576.09;;;19.18;100.00
43039;BME280;62252;50.668;19.530;2022-08-19T00:54:14;97576.78;;;19.20;100.00
43039;BME280;62252;50.668;19.530;2022-08-19T00:56:42;97567.75;;;19.21;100.00
43039;BME280;62252;50.668;19.530;2022-08-19T00:59:10;97569.25;;;19.23;100.00
43039;BME280;62252;50.668;19.530;2022-08-19T01:01:40;97569.25;;;19.23;100.00
43039;BME280;62252;50.668;19.530;2022-08-19T01:04:08;97564.25;;;19.20;100.00
43039;BME280;62252;50.668;19.530;2022-08-19T01:06:38;97562.28;;;19.22;100.00
43039;BME280;62252;50.668;19.530;2022-08-19T01:09:08;97564.94;;;19.22;100.00
43039;BME280;62252;50.668;19.530;2022-08-19T01:11:40;97552.59;;;19.21;100.00
43039;BME280;62252;50.668;19.530;2022-08-19T01:14:09;97554.91;;;19.24;100.00
43039;BME280;62252;50.668;19.530;2022-08-19T01:16:37;97564.75;;;19.16;100.00
43039;BME280;62252;50.668;19.530;2022-08-19T01:19:12;97570.56;;;19.11;100.00
43039;BME280;62252;50.668;19.530;2022-08-19T01:21:47;97560.91;;;19.10;100.00
43039;BME280;62252;50.668;19.530;2022-08-19T01:24:18;97556.56;;;19.09;100.00
43039;BME280;62252;50.668;19.530;2022-08-19T01:26:46;97550.09;;;19.12;100.00
43039;BME280;62252;50.668;19.530;2022-08-19T01:29:13;97543.25;;;19.17;100.00
43039;BME280;62252;50.668;19.530;2022-08-19T01:31:41;97542.59;;;19.23;100.00
43039;BME280;62252;50.668;19.530;2022-08-19T01:34:08;97539.44;;;19.28;100.00
43039;BME280;62252;50.668;19.530;2022-08-19T01:36:40;97540.78;;;19.32;100.00
43039;BME280;62252;50.668;19.530;2022-08-19T01:39:11;97539.28;;;19.37;100.00
43039;BME280;62252;50.668;19.530;2022-08-19T01:41:40;97533.25;;;19.35;100.00
43039;BME280;62252;50.668;19.530;2022-08-19T01:44:09;97532.44;;;19.35;100.00
43039;BME280;62252;50.668;19.530;2022-08-19T01:46:36;97523.75;;;19.33;100.00
43039;BME280;62252;50.668;19.530;2022-08-19T01:49:06;97523.13;;;19.31;100.00
43039;BME280;62252;50.668;19.530;2022-08-19T01:51:33;97523.44;;;19.28;100.00
43039;BME280;62252;50.668;19.530;2022-08-19T01:54:01;97533.59;;;19.24;100.00
43039;BME280;62252;50.668;19.530;2022-08-19T01:56:28;97533.78;;;19.23;100.00
43039;BME280;62252;50.668;19.530;2022-08-19T01:59:00;97533.78;;;19.23;100.00
43039;BME280;62252;50.668;19.530;2022-08-19T02:01:29;97531.59;;;19.18;100.00
43039;BME280;62252;50.668;19.530;2022-08-19T02:03:57;97529.25;;;19.15;100.00
43039;BME280;62252;50.668;19.530;2022-08-19T02:06:26;97531.22;;;19.13;100.00
43039;BME280;62252;50.668;19.530;2022-08-19T02:08:54;97531.06;;;19.15;100.00
43039;BME280;62252;50.668;19.530;2022-08-19T02:11:24;97526.91;;;19.12;100.00
43039;BME280;62252;50.668;19.530;2022-08-19T02:13:53;97526.56;;;19.07;100.00
43039;BME280;62252;50.668;19.530;2022-08-19T02:16:22;97521.56;;;19.04;100.00
43039;BME280;62252;50.668;19.530;2022-08-19T02:18:50;97507.88;;;18.99;100.00
43039;BME280;62252;50.668;19.530;2022-08-19T02:21:20;97515.19;;;18.97;100.00
43039;BME280;62252;50.668;19.530;2022-08-19T02:23:48;97509.22;;;18.95;100.00
43039;BME280;62252;50.668;19.530;2022-08-19T02:26:16;97512.84;;;18.86;100.00
43039;BME280;62252;50.668;19.530;2022-08-19T02:28:44;97517.31;;;18.78;100.00
43039;BME280;62252;50.668;19.530;2022-08-19T02:31:14;97506.94;;;18.67;100.00
43039;BME280;62252;50.668;19.530;2022-08-19T02:33:43;97508.09;;;18.64;100.00
43039;BME280;62252;50.668;19.530;2022-08-19T02:36:12;97510.44;;;18.67;100.00
43039;BME280;62252;50.668;19.530;2022-08-19T02:38:40;97510.75;;;18.64;100.00
43039;BME280;62252;50.668;19.530;2022-08-19T02:41:12;97506.28;;;18.65;100.00
43039;BME280;62252;50.668;19.530;2022-08-19T02:43:41;97507.78;;;18.67;100.00
43039;BME280;62252;50.668;19.530;2022-08-19T02:46:14;97507.09;;;18.65;100.00
43039;BME280;62252;50.668;19.530;2022-08-19T02:48:45;97506.94;;;18.67;100.00
43039;BME280;62252;50.668;19.530;2022-08-19T02:51:16;97507.63;;;18.69;100.00
43039;BME280;62252;50.668;19.530;2022-08-19T02:53:45;97506.47;;;18.71;100.00
43039;BME280;62252;50.668;19.530;2022-08-19T02:56:12;97510.13;;;18.70;100.00
43039;BME280;62252;50.668;19.530;2022-08-19T02:58:40;97514.47;;;18.71;100.00
43039;BME280;62252;50.668;19.530;2022-08-19T03:01:08;97516.47;;;18.69;100.00
43039;BME280;62252;50.668;19.530;2022-08-19T03:03:36;97516.78;;;18.66;100.00
43039;BME280;62252;50.668;19.530;2022-08-19T03:06:12;97516.78;;;18.66;100.00
43039;BME280;62252;50.668;19.530;2022-08-19T03:08:41;97518.75;;;18.64;100.00
43039;BME280;62252;50.668;19.530;2022-08-19T03:11:13;97524.09;;;18.64;100.00
43039;BME280;62252;50.668;19.530;2022-08-19T03:13:41;97520.41;;;18.65;100.00
43039;BME280;62252;50.668;19.530;2022-08-19T03:16:09;97524.94;;;18.65;100.00
43039;BME280;62252;50.668;19.530;2022-08-19T03:18:37;97530.91;;;18.67;100.00
43039;BME280;62252;50.668;19.530;2022-08-19T03:21:05;97533.44;;;18.68;100.00
43039;BME280;62252;50.668;19.530;2022-08-19T03:23:35;97534.75;;;18.64;100.00
43039;BME280;62252;50.668;19.530;2022-08-19T03:26:03;97533.94;;;18.64;100.00
43039;BME280;62252;50.668;19.530;2022-08-19T03:28:33;97535.03;;;18.61;100.00
43039;BME280;62252;50.668;19.530;2022-08-19T03:31:03;97531.44;;;18.62;100.00
43039;BME280;62252;50.668;19.530;2022-08-19T03:33:31;97540.06;;;18.64;100.00
43039;BME280;62252;50.668;19.530;2022-08-19T03:36:01;97530.03;;;18.58;100.00
43039;BME280;62252;50.668;19.530;2022-08-19T03:38:28;97535.16;;;18.52;100.00
43039;BME280;62252;50.668;19.530;2022-08-19T03:40:57;97537.97;;;18.50;100.00
43039;BME280;62252;50.668;19.530;2022-08-19T03:43:25;97542.34;;;18.51;100.00
43039;BME280;62252;50.668;19.530;2022-08-19T03:46:00;97536.63;;;18.46;100.00
43039;BME280;62252;50.668;19.530;2022-08-19T03:48:28;97536.94;;;18.43;100.00
43039;BME280;62252;50.668;19.530;2022-08-19T03:50:57;97545.31;;;18.48;100.00
43039;BME280;62252;50.668;19.530;2022-08-19T03:53:26;97534.34;;;18.51;100.00
43039;BME280;62252;50.668;19.530;2022-08-19T03:55:53;97542.34;;;18.51;100.00
43039;BME280;62252;50.668;19.530;2022-08-19T03:58:23;97548.31;;;18.53;100.00
43039;BME280;62252;50.668;19.530;2022-08-19T04:00:50;97540.16;;;18.55;100.00
43039;BME280;62252;50.668;19.530;2022-08-19T04:03:18;97543.84;;;18.54;100.00
43039;BME280;62252;50.668;19.530;2022-08-19T04:05:46;97540.84;;;18.57;100.00
43039;BME280;62252;50.668;19.530;2022-08-19T04:08:14;97540.34;;;18.61;100.00
43039;BME280;62252;50.668;19.530;2022-08-19T04:10:46;97530.09;;;18.66;100.00
43039;BME280;62252;50.668;19.530;2022-08-19T04:13:14;97521.44;;;18.72;100.00
43039;BME280;62252;50.668;19.530;2022-08-19T04:15:44;97528.50;;;18.81;100.00
43039;BME280;62252;50.668;19.530;2022-08-19T04:18:13;97539.50;;;18.86;100.00
43039;BME280;62252;50.668;19.530;2022-08-19T04:20:42;97532.03;;;18.90;100.00
43039;BME280;62252;50.668;19.530;2022-08-19T04:23:10;97544.19;;;18.92;100.00
43039;BME280;62252;50.668;19.530;2022-08-19T04:25:39;97547.50;;;18.94;100.00
43039;BME280;62252;50.668;19.530;2022-08-19T04:28:07;97557.84;;;18.89;100.00
43039;BME280;62252;50.668;19.530;2022-08-19T04:30:41;97565.84;;;18.89;100.00
43039;BME280;62252;50.668;19.530;2022-08-19T04:33:12;97573.69;;;18.91;100.00
43039;BME280;62252;50.668;19.530;2022-08-19T04:35:43;97569.69;;;18.95;100.00
43039;BME280;62252;50.668;19.530;2022-08-19T04:38:13;97570.41;;;19.05;100.00
43039;BME280;62252;50.668;19.530;2022-08-19T04:40:41;97569.25;;;19.15;100.00
43039;BME280;62252;50.668;19.530;2022-08-19T04:43:26;97552.47;;;19.31;100.00
43039;BME280;62252;50.668;19.530;2022-08-19T04:45:54;97563.19;;;19.47;100.00
43039;BME280;62252;50.668;19.530;2022-08-19T04:48:23;97569.19;;;19.57;100.00
43039;BME280;62252;50.668;19.530;2022-08-19T04:50:53;97569.53;;;19.70;100.00
43039;BME280;62252;50.668;19.530;2022-08-19T04:53:23;97572.38;;;19.84;100.00
43039;BME280;62252;50.668;19.530;2022-08-19T04:55:55;97567.03;;;19.92;100.00
43039;BME280;62252;50.668;19.530;2022-08-19T04:58:25;97563.53;;;20.08;100.00
43039;BME280;62252;50.668;19.530;2022-08-19T05:00:53;97586.41;;;20.18;100.00
43039;BME280;62252;50.668;19.530;2022-08-19T05:03:22;97571.69;;;20.30;100.00
43039;BME280;62252;50.668;19.530;2022-08-19T05:05:50;97585.03;;;20.46;100.00
43039;BME280;62252;50.668;19.530;2022-08-19T05:08:19;97581.66;;;20.52;100.00
43039;BME280;62252;50.668;19.530;2022-08-19T05:10:49;97587.66;;;20.62;100.00
43039;BME280;62252;50.668;19.530;2022-08-19T05:13:19;97578.94;;;20.77;100.00
43039;BME280;62252;50.668;19.530;2022-08-19T05:15:53;97576.88;;;20.95;100.00
43039;BME280;62252;50.668;19.530;2022-08-19T05:18:23;97582.16;;;21.11;100.00
43039;BME280;62252;50.668;19.530;2022-08-19T05:21:08;97582.72;;;21.29;100.00
43039;BME280;62252;50.668;19.530;2022-08-19T05:23:54;97590.59;;;21.53;100.00
43039;BME280;62252;50.668;19.530;2022-08-19T05:26:21;97577.16;;;21.69;100.00
43039;BME280;62252;50.668;19.530;2022-08-19T05:28:49;97577.69;;;21.87;100.00
43039;BME280;62252;50.668;19.530;2022-08-19T05:31:16;97572.81;;;22.05;100.00
43039;BME280;62252;50.668;19.530;2022-08-19T05:33:45;97566.03;;;22.17;99.74
43039;BME280;62252;50.668;19.530;2022-08-19T05:36:13;97568.44;;;22.26;98.78
43039;BME280;62252;50.668;19.530;2022-08-19T05:38:40;97567.53;;;22.34;98.08
43039;BME280;62252;50.668;19.530;2022-08-19T05:41:08;97570.44;;;22.47;96.77
43039;BME280;62252;50.668;19.530;2022-08-19T05:43:36;97555.09;;;22.55;95.79
43039;BME280;62252;50.668;19.530;2022-08-19T05:46:04;97560.63;;;22.68;95.21
43039;BME280;62252;50.668;19.530;2022-08-19T05:48:32;97565.72;;;22.78;94.17
43039;BME280;62252;50.668;19.530;2022-08-19T05:51:05;97564.69;;;22.93;93.71
43039;BME280;62252;50.668;19.530;2022-08-19T05:53:34;97574.44;;;23.09;92.60
43039;BME280;62252;50.668;19.530;2022-08-19T05:56:04;97569.56;;;23.19;91.98
43039;BME280;62252;50.668;19.530;2022-08-19T05:58:31;97578.66;;;23.18;91.34
43039;BME280;62252;50.668;19.530;2022-08-19T06:00:59;97577.00;;;23.17;91.36
43039;BME280;62252;50.668;19.530;2022-08-19T06:03:30;97572.47;;;23.17;91.48
43039;BME280;62252;50.668;19.530;2022-08-19T06:05:58;97582.13;;;23.33;91.48
43039;BME280;62252;50.668;19.530;2022-08-19T06:08:28;97572.72;;;23.58;90.63
43039;BME280;62252;50.668;19.530;2022-08-19T06:10:55;97576.47;;;23.78;89.63
43039;BME280;62252;50.668;19.530;2022-08-19T06:13:23;97579.81;;;24.01;88.73
43039;BME280;62252;50.668;19.530;2022-08-19T06:15:51;97578.47;;;24.18;88.11
43039;BME280;62252;50.668;19.530;2022-08-19T06:18:19;97579.81;;;24.29;87.38
43039;BME280;62252;50.668;19.530;2022-08-19T06:20:46;97574.94;;;24.39;86.97
43039;BME280;62252;50.668;19.530;2022-08-19T06:23:14;97569.63;;;24.45;86.93
43039;BME280;62252;50.668;19.530;2022-08-19T06:25:44;97583.31;;;24.50;86.04
43039;BME280;62252;50.668;19.530;2022-08-19T06:28:11;97578.31;;;24.47;85.77
43039;BME280;62252;50.668;19.530;2022-08-19T06:30:39;97576.91;;;24.51;86.13
43039;BME280;62252;50.668;19.530;2022-08-19T06:33:07;97571.63;;;24.64;84.84
43039;BME280;62252;50.668;19.530;2022-08-19T06:35:38;97576.06;;;24.78;84.16
43039;BME280;62252;50.668;19.530;2022-08-19T06:38:06;97581.97;;;24.95;83.49
43039;BME280;62252;50.668;19.530;2022-08-19T06:40:35;97574.59;;;25.10;83.25
43039;BME280;62252;50.668;19.530;2022-08-19T06:43:05;97579.63;;;25.26;82.47
43039;BME280;62252;50.668;19.530;2022-08-19T06:45:32;97588.19;;;25.42;81.79
43039;BME280;62252;50.668;19.530;2022-08-19T06:48:00;97596.34;;;25.55;81.10
43039;BME280;62252;50.668;19.530;2022-08-19T06:50:28;97592.44;;;25.64;80.43
43039;BME280;62252;50.668;19.530;2022-08-19T06:52:55;97590.59;;;25.71;80.30
43039;BME280;62252;50.668;19.530;2022-08-19T06:55:22;97594.72;;;25.74;79.93
43039;BME280;62252;50.668;19.530;2022-08-19T06:57:50;97593.53;;;25.89;80.48
43039;BME280;62252;50.668;19.530;2022-08-19T07:00:20;97596.44;;;26.01;80.08
43039;BME280;62252;50.668;19.530;2022-08-19T07:02:48;97595.22;;;26.10;79.00
43039;BME280;62252;50.668;19.530;2022-08-19T07:05:15;97592.13;;;26.26;79.10
43039;BME280;62252;50.668;19.530;2022-08-19T07:07:43;97588.59;;;26.38;78.44
43039;BME280;62252;50.668;19.530;2022-08-19T07:10:11;97595.25;;;26.42;77.90
43039;BME280;62252;50.668;19.530;2022-08-19T07:12:38;97611.84;;;26.52;78.02
43039;BME280;62252;50.668;19.530;2022-08-19T07:15:07;97595.41;;;26.67;77.28
43039;BME280;62252;50.668;19.530;2022-08-19T07:17:38;97601.44;;;26.89;77.77
43039;BME280;62252;50.668;19.530;2022-08-19T07:20:07;97594.13;;;27.09;77.56
43039;BME280;62252;50.668;19.530;2022-08-19T07:22:35;97599.06;;;27.18;75.86
43039;BME280;62252;50.668;19.530;2022-08-19T07:25:03;97595.09;;;27.34;76.58
43039;BME280;62252;50.668;19.530;2022-08-19T07:27:31;97600.41;;;27.53;75.76
43039;BME280;62252;50.668;19.530;2022-08-19T07:30:00;97599.13;;;27.62;75.14
43039;BME280;62252;50.668;19.530;2022-08-19T07:32:27;97603.47;;;27.70;74.74
43039;BME280;62252;50.668;19.530;2022-08-19T07:34:58;97606.13;;;27.76;74.32
43039;BME280;62252;50.668;19.530;2022-08-19T07:37:29;97605.66;;;27.86;73.72
43039;BME280;62252;50.668;19.530;2022-08-19T07:39:56;97607.25;;;28.00;73.20
43039;BME280;62252;50.668;19.530;2022-08-19T07:42:23;97607.56;;;28.16;72.64
43039;BME280;62252;50.668;19.530;2022-08-19T07:44:51;97615.34;;;28.31;71.83
43039;BME280;62252;50.668;19.530;2022-08-19T07:47:19;97615.72;;;28.41;71.48
43039;BME280;62252;50.668;19.530;2022-08-19T07:49:46;97620.63;;;28.50;71.50
43039;BME280;62252;50.668;19.530;2022-08-19T07:52:16;97620.13;;;28.60;69.82
43039;BME280;62252;50.668;19.530;2022-08-19T07:54:43;97622.09;;;28.71;69.94
43039;BME280;62252;50.668;19.530;2022-08-19T07:57:11;97627.84;;;28.81;69.40
43039;BME280;62252;50.668;19.530;2022-08-19T07:59:38;97633.09;;;28.76;68.73
43039;BME280;62252;50.668;19.530;2022-08-19T08:02:06;97630.16;;;28.77;68.77
43039;BME280;62252;50.668;19.530;2022-08-19T08:04:35;97631.78;;;28.85;68.76
43039;BME280;62252;50.668;19.530;2022-08-19T08:07:21;97631.97;;;29.08;68.71
43039;BME280;62252;50.668;19.530;2022-08-19T08:10:06;97632.34;;;29.29;68.19
43039;BME280;62252;50.668;19.530;2022-08-19T08:12:36;97629.75;;;29.59;68.27
43039;BME280;62252;50.668;19.530;2022-08-19T08:15:09;97629.41;;;29.85;66.11
43039;BME280;62252;50.668;19.530;2022-08-19T08:17:37;97632.56;;;29.82;66.31
43039;BME280;62252;50.668;19.530;2022-08-19T08:20:05;97633.97;;;30.03;65.46
43039;BME280;62252;50.668;19.530;2022-08-19T08:22:35;97633.81;;;30.27;64.21
43039;BME280;62252;50.668;19.530;2022-08-19T08:25:22;97640.00;;;30.46;63.75
43039;BME280;62252;50.668;19.530;2022-08-19T08:27:50;97624.28;;;30.36;63.05
43039;BME280;62252;50.668;19.530;2022-08-19T08:30:21;97641.03;;;30.33;63.35
43039;BME280;62252;50.668;19.530;2022-08-19T08:32:49;97640.84;;;30.46;62.89
43039;BME280;62252;50.668;19.530;2022-08-19T08:35:19;97637.34;;;30.57;62.76
43039;BME280;62252;50.668;19.530;2022-08-19T08:37:50;97642.66;;;30.64;63.25
43039;BME280;62252;50.668;19.530;2022-08-19T08:40:21;97642.53;;;30.70;63.05
43039;BME280;62252;50.668;19.530;2022-08-19T08:42:53;97634.03;;;30.78;62.34
43039;BME280;62252;50.668;19.530;2022-08-19T08:45:27;97644.22;;;30.94;62.18
43039;BME280;62252;50.668;19.530;2022-08-19T08:47:58;97644.00;;;31.07;62.37
43039;BME280;62252;50.668;19.530;2022-08-19T08:50:32;97644.47;;;31.16;61.96
43039;BME280;62252;50.668;19.530;2022-08-19T08:53:06;97635.31;;;31.33;62.29
43039;BME280;62252;50.668;19.530;2022-08-19T08:55:35;97631.06;;;31.49;61.17
43039;BME280;62252;50.668;19.530;2022-08-19T08:58:05;97628.09;;;31.50;60.21
43039;BME280;62252;50.668;19.530;2022-08-19T09:00:35;97630.81;;;31.50;60.63
43039;BME280;62252;50.668;19.530;2022-08-19T09:03:10;97635.91;;;31.58;60.68
43039;BME280;62252;50.668;19.530;2022-08-19T09:05:49;97643.00;;;31.59;60.70
43039;BME280;62252;50.668;19.530;2022-08-19T09:08:29;97637.28;;;31.72;60.02
43039;BME280;62252;50.668;19.530;2022-08-19T09:11:03;97636.66;;;31.82;60.03
43039;BME280;62252;50.668;19.530;2022-08-19T09:13:37;97640.88;;;31.89;59.17
43039;BME280;62252;50.668;19.530;2022-08-19T09:16:12;97643.25;;;31.86;59.08
43039;BME280;62252;50.668;19.530;2022-08-19T09:18:41;97634.41;;;31.79;59.79
43039;BME280;62252;50.668;19.530;2022-08-19T09:21:10;97627.25;;;31.89;59.77
43039;BME280;62252;50.668;19.530;2022-08-19T09:23:40;97625.13;;;32.03;59.86
43039;BME280;62252;50.668;19.530;2022-08-19T09:26:10;97630.78;;;32.01;59.77
43039;BME280;62252;50.668;19.530;2022-08-19T09:28:39;97618.59;;;32.04;59.51
43039;BME280;62252;50.668;19.530;2022-08-19T09:31:09;97607.47;;;32.05;58.46
43039;BME280;62252;50.668;19.530;2022-08-19T09:33:37;97607.97;;;32.02;58.10
43039;BME280;62252;50.668;19.530;2022-08-19T09:36:07;97610.13;;;32.17;58.45
43039;BME280;62252;50.668;19.530;2022-08-19T09:38:35;97605.03;;;32.20;56.43
43039;BME280;62252;50.668;19.530;2022-08-19T09:41:07;97601.00;;;32.40;56.22
43039;BME280;62252;50.668;19.530;2022-08-19T09:43:37;97593.50;;;32.47;54.79
43039;BME280;62252;50.668;19.530;2022-08-19T09:46:05;97595.41;;;32.63;53.90
43039;BME280;62252;50.668;19.530;2022-08-19T09:48:35;97585.41;;;32.68;50.45
43039;BME280;62252;50.668;19.530;2022-08-19T09:51:04;97589.69;;;32.81;50.29
43039;BME280;62252;50.668;19.530;2022-08-19T09:53:33;97597.19;;;32.90;49.41
43039;BME280;62252;50.668;19.530;2022-08-19T09:56:01;97588.59;;;32.98;49.78
43039;BME280;62252;50.668;19.530;2022-08-19T09:58:30;97586.09;;;33.13;48.90
43039;BME280;62252;50.668;19.530;2022-08-19T10:00:58;97594.81;;;33.32;47.38
43039;BME280;62252;50.668;19.530;2022-08-19T10:03:28;97598.66;;;33.52;46.87
43039;BME280;62252;50.668;19.530;2022-08-19T10:05:58;97596.59;;;33.64;47.04
43039;BME280;62252;50.668;19.530;2022-08-19T10:08:28;97592.78;;;33.65;46.35
43039;BME280;62252;50.668;19.530;2022-08-19T10:10:56;97589.09;;;33.76;46.66
43039;BME280;62252;50.668;19.530;2022-08-19T10:13:26;97598.75;;;33.84;47.16
43039;BME280;62252;50.668;19.530;2022-08-19T10:16:01;97597.59;;;34.01;47.13
43039;BME280;62252;50.668;19.530;2022-08-19T10:18:29;97607.03;;;34.15;46.48
43039;BME280;62252;50.668;19.530;2022-08-19T10:21:05;97598.28;;;34.40;47.00
43039;BME280;62252;50.668;19.530;2022-08-19T10:23:35;97592.38;;;34.53;46.49
43039;BME280;62252;50.668;19.530;2022-08-19T10:26:03;97593.16;;;34.85;45.95
43039;BME280;62252;50.668;19.530;2022-08-19T10:28:32;97588.03;;;34.93;45.18
43039;BME280;62252;50.668;19.530;2022-08-19T10:31:05;97593.84;;;35.02;43.53
43039;BME280;62252;50.668;19.530;2022-08-19T10:33:33;97587.28;;;35.03;43.94
43039;BME280;62252;50.668;19.530;2022-08-19T10:36:02;97592.25;;;35.11;44.37
43039;BME280;62252;50.668;19.530;2022-08-19T10:38:30;97587.09;;;35.20;43.73
43039;BME280;62252;50.668;19.530;2022-08-19T10:40:58;97593.94;;;35.22;42.49
43039;BME280;62252;50.668;19.530;2022-08-19T10:43:25;97588.53;;;35.27;43.49
43039;BME280;62252;50.668;19.530;2022-08-19T10:45:54;97589.91;;;35.30;44.24
43039;BME280;62252;50.668;19.530;2022-08-19T10:48:35;97589.03;;;35.19;44.42
43039;BME280;62252;50.668;19.530;2022-08-19T10:51:04;97587.53;;;35.01;44.27
43039;BME280;62252;50.668;19.530;2022-08-19T10:53:50;97580.03;;;34.82;44.26
43039;BME280;62252;50.668;19.530;2022-08-19T10:56:18;97579.06;;;34.98;44.17
43039;BME280;62252;50.668;19.530;2022-08-19T10:59:03;97583.75;;;35.03;44.50
43039;BME280;62252;50.668;19.530;2022-08-19T11:01:32;97582.88;;;34.97;44.48
43039;BME280;62252;50.668;19.530;2022-08-19T11:04:02;97574.63;;;34.92;44.50
43039;BME280;62252;50.668;19.530;2022-08-19T11:06:31;97574.63;;;34.87;44.12
43039;BME280;62252;50.668;19.530;2022-08-19T11:08:59;97573.00;;;34.91;42.68
43039;BME280;62252;50.668;19.530;2022-08-19T11:11:27;97571.94;;;34.97;43.06
43039;BME280;62252;50.668;19.530;2022-08-19T11:13:54;97570.59;;;34.99;44.21
43039;BME280;62252;50.668;19.530;2022-08-19T11:16:24;97575.75;;;34.96;44.83
43039;BME280;62252;50.668;19.530;2022-08-19T11:18:54;97562.44;;;34.68;43.90
43039;BME280;62252;50.668;19.530;2022-08-19T11:21:25;97569.25;;;34.65;44.12
43039;BME280;62252;50.668;19.530;2022-08-19T11:23:56;97565.72;;;34.70;43.78
43039;BME280;62252;50.668;19.530;2022-08-19T11:26:25;97560.56;;;34.78;43.18
43039;BME280;62252;50.668;19.530;2022-08-19T11:28:53;97549.09;;;34.76;43.32
43039;BME280;62252;50.668;19.530;2022-08-19T11:31:23;97544.91;;;34.64;43.57
43039;BME280;62252;50.668;19.530;2022-08-19T11:33:51;97543.72;;;34.50;43.80
43039;BME280;62252;50.668;19.530;2022-08-19T11:36:20;97544.47;;;34.40;43.11
43039;BME280;62252;50.668;19.530;2022-08-19T11:38:51;97545.25;;;34.41;44.56
43039;BME280;62252;50.668;19.530;2022-08-19T11:41:19;97548.56;;;34.43;44.93
43039;BME280;62252;50.668;19.530;2022-08-19T11:43:48;97543.13;;;34.48;44.14
43039;BME280;62252;50.668;19.530;2022-08-19T11:46:18;97538.53;;;34.53;43.80
43039;BME280;62252;50.668;19.530;2022-08-19T11:48:46;97537.38;;;34.44;43.61
43039;BME280;62252;50.668;19.530;2022-08-19T11:51:19;97536.03;;;34.15;43.48
43039;BME280;62252;50.668;19.530;2022-08-19T11:53:48;97527.59;;;34.22;44.50
43039;BME280;62252;50.668;19.530;2022-08-19T11:56:18;97520.59;;;34.31;44.07
43039;BME280;62252;50.668;19.530;2022-08-19T11:58:46;97528.22;;;34.29;44.20
43039;BME280;62252;50.668;19.530;2022-08-19T12:01:17;97526.00;;;34.26;45.16
43039;BME280;62252;50.668;19.530;2022-08-19T12:03:46;97531.44;;;34.26;45.25
43039;BME280;62252;50.668;19.530;2022-08-19T12:06:15;97532.31;;;34.31;44.92
43039;BME280;62252;50.668;19.530;2022-08-19T12:08:44;97529.38;;;34.38;44.24
43039;BME280;62252;50.668;19.530;2022-08-19T12:11:14;97528.34;;;34.44;43.99
43039;BME280;62252;50.668;19.530;2022-08-19T12:13:42;97536.03;;;34.47;43.88
43039;BME280;62252;50.668;19.530;2022-08-19T12:16:14;97537.16;;;34.51;44.33
43039;BME280;62252;50.668;19.530;2022-08-19T12:18:42;97540.25;;;34.64;44.33
43039;BME280;62252;50.668;19.530;2022-08-19T12:21:13;97539.66;;;34.57;44.03
43039;BME280;62252;50.668;19.530;2022-08-19T12:23:45;97526.78;;;34.53;44.17
43039;BME280;62252;50.668;19.530;2022-08-19T12:26:16;97531.94;;;34.49;44.09
43039;BME280;62252;50.668;19.530;2022-08-19T12:28:44;97532.06;;;34.33;44.39
43039;BME280;62252;50.668;19.530;2022-08-19T12:31:14;97529.59;;;34.31;44.80
43039;BME280;62252;50.668;19.530;2022-08-19T12:33:42;97524.81;;;34.12;44.92
43039;BME280;62252;50.668;19.530;2022-08-19T12:36:11;97536.25;;;33.87;45.33
43039;BME280;62252;50.668;19.530;2022-08-19T12:38:39;97528.75;;;33.73;44.98
43039;BME280;62252;50.668;19.530;2022-08-19T12:41:09;97533.09;;;33.69;48.81
43039;BME280;62252;50.668;19.530;2022-08-19T12:43:39;97543.41;;;33.67;48.90
43039;BME280;62252;50.668;19.530;2022-08-19T12:46:08;97543.25;;;33.73;47.84
43039;BME280;62252;50.668;19.530;2022-08-19T12:48:37;97538.06;;;33.77;47.54
43039;BME280;62252;50.668;19.530;2022-08-19T12:51:06;97541.56;;;33.72;46.71
43039;BME280;62252;50.668;19.530;2022-08-19T12:53:35;97536.31;;;33.66;46.76
43039;BME280;62252;50.668;19.530;2022-08-19T12:56:04;97538.75;;;33.62;46.74
43039;BME280;62252;50.668;19.530;2022-08-19T12:58:32;97528.09;;;33.61;46.98